Terminal Aerodrome Forecast
Issued by NWS

Home | Current Version | Previous Version | Graphics & Text | Print | Product List | Glossary On
Versions: 1 2 3 4 5 6 7 8 9 10 11 12 13 14
000
FTUS43 KIWX 171700
TAFSBN
TAF
KSBN 171730Z 1718/1818 28016G25KT P6SM SCT025 BKN040
     FM172200 28014G22KT P6SM BKN030
     FM180200 30012KT P6SM OVC020
      TEMPO 1802/1806 5SM -SHRA BR
     FM180600 32010KT 5SM -SHRA BR OVC015
     FM181600 33012G20KT P6SM VCSH BKN025=

USA.gov is the U.S. government's official web portal to all federal, state and local government web resources and services.